sensor_id;sensor_type;location;lat;lon;timestamp;temperature;humidity
71096;DHT22;58753;49.440;11.126;2022-10-23T00:00:21;9.28;92.56
71096;DHT22;58753;49.440;11.126;2022-10-23T00:02:51;9.22;92.60
71096;DHT22;58753;49.440;11.126;2022-10-23T00:05:18;9.22;92.49
71096;DHT22;58753;49.440;11.126;2022-10-23T00:07:44;9.21;92.71
71096;DHT22;58753;49.440;11.126;2022-10-23T00:10:13;9.19;92.98
71096;DHT22;58753;49.440;11.126;2022-10-23T00:12:38;9.15;92.62
71096;DHT22;58753;49.440;11.126;2022-10-23T00:15:04;9.08;92.65
71096;DHT22;58753;49.440;11.126;2022-10-23T00:17:29;9.05;92.39
71096;DHT22;58753;49.440;11.126;2022-10-23T00:19:56;9.10;92.58
71096;DHT22;58753;49.440;11.126;2022-10-23T00:22:22;9.11;92.56
71096;DHT22;58753;49.440;11.126;2022-10-23T00:24:47;9.08;92.73
71096;DHT22;58753;49.440;11.126;2022-10-23T00:27:13;9.01;92.67
71096;DHT22;58753;49.440;11.126;2022-10-23T00:29:38;9.01;92.83
71096;DHT22;58753;49.440;11.126;2022-10-23T00:32:03;9.05;92.85
71096;DHT22;58753;49.440;11.126;2022-10-23T00:34:29;9.04;92.64
71096;DHT22;58753;49.440;11.126;2022-10-23T00:36:54;8.98;92.67
71096;DHT22;58753;49.440;11.126;2022-10-23T00:39:19;8.94;92.76
71096;DHT22;58753;49.440;11.126;2022-10-23T00:41:45;8.92;92.84
71096;DHT22;58753;49.440;11.126;2022-10-23T00:46:57;8.91;92.74
71096;DHT22;58753;49.440;11.126;2022-10-23T00:49:23;8.88;92.64
71096;DHT22;58753;49.440;11.126;2022-10-23T00:51:56;8.84;92.79
71096;DHT22;58753;49.440;11.126;2022-10-23T00:54:25;8.84;92.81
71096;DHT22;58753;49.440;11.126;2022-10-23T00:56:55;8.84;92.86
71096;DHT22;58753;49.440;11.126;2022-10-23T00:59:21;8.81;93.09
71096;DHT22;58753;49.440;11.126;2022-10-23T01:01:46;8.80;92.78
71096;DHT22;58753;49.440;11.126;2022-10-23T01:04:12;8.77;93.00
71096;DHT22;58753;49.440;11.126;2022-10-23T01:15:30;8.70;92.59
71096;DHT22;58753;49.440;11.126;2022-10-23T01:20:59;8.68;92.64
71096;DHT22;58753;49.440;11.126;2022-10-23T01:29:02;8.61;92.62
71096;DHT22;58753;49.440;11.126;2022-10-23T01:31:39;8.57;92.41
71096;DHT22;58753;49.440;11.126;2022-10-23T01:34:12;8.56;92.79
71096;DHT22;58753;49.440;11.126;2022-10-23T01:36:41;8.53;92.78
71096;DHT22;58753;49.440;11.126;2022-10-23T01:39:13;8.57;92.76
71096;DHT22;58753;49.440;11.126;2022-10-23T01:41:45;8.54;93.06
71096;DHT22;58753;49.440;11.126;2022-10-23T01:44:35;8.47;92.96
71096;DHT22;58753;49.440;11.126;2022-10-23T01:47:04;8.44;92.75
71096;DHT22;58753;49.440;11.126;2022-10-23T01:49:31;8.46;92.98
71096;DHT22;58753;49.440;11.126;2022-10-23T01:52:01;8.46;93.20
71096;DHT22;58753;49.440;11.126;2022-10-23T01:54:32;8.42;92.89
71096;DHT22;58753;49.440;11.126;2022-10-23T01:57:01;8.40;92.88
71096;DHT22;58753;49.440;11.126;2022-10-23T01:59:39;8.40;93.16
71096;DHT22;58753;49.440;11.126;2022-10-23T02:02:07;8.40;93.08
71096;DHT22;58753;49.440;11.126;2022-10-23T02:07:32;8.37;92.83
71096;DHT22;58753;49.440;11.126;2022-10-23T02:09:58;8.37;92.92
71096;DHT22;58753;49.440;11.126;2022-10-23T02:12:49;8.33;92.84
71096;DHT22;58753;49.440;11.126;2022-10-23T02:15:36;8.32;93.11
71096;DHT22;58753;49.440;11.126;2022-10-23T02:20:46;8.28;92.82
71096;DHT22;58753;49.440;11.126;2022-10-23T02:25:58;8.16;92.82
71096;DHT22;58753;49.440;11.126;2022-10-23T02:28:30;8.23;93.10
71096;DHT22;58753;49.440;11.126;2022-10-23T02:30:58;8.21;92.98
71096;DHT22;58753;49.440;11.126;2022-10-23T02:33:26;8.14;93.07
71096;DHT22;58753;49.440;11.126;2022-10-23T02:35:52;8.13;92.95
71096;DHT22;58753;49.440;11.126;2022-10-23T02:38:36;8.14;92.98
71096;DHT22;58753;49.440;11.126;2022-10-23T02:44:25;8.16;93.05
71096;DHT22;58753;49.440;11.126;2022-10-23T02:47:04;8.14;92.97
71096;DHT22;58753;49.440;11.126;2022-10-23T02:49:59;8.10;92.98
71096;DHT22;58753;49.440;11.126;2022-10-23T02:55:38;8.05;92.65
71096;DHT22;58753;49.440;11.126;2022-10-23T03:00:44;7.86;92.96
71096;DHT22;58753;49.440;11.126;2022-10-23T03:03:17;7.82;92.74
71096;DHT22;58753;49.440;11.126;2022-10-23T03:05:44;7.78;92.88
71096;DHT22;58753;49.440;11.126;2022-10-23T03:08:12;7.82;93.15
71096;DHT22;58753;49.440;11.126;2022-10-23T03:10:39;7.86;93.12
71096;DHT22;58753;49.440;11.126;2022-10-23T03:13:05;7.86;93.31
71096;DHT22;58753;49.440;11.126;2022-10-23T03:15:31;7.81;93.19
71096;DHT22;58753;49.440;11.126;2022-10-23T03:17:56;7.81;93.13
71096;DHT22;58753;49.440;11.126;2022-10-23T03:20:22;7.82;92.94
71096;DHT22;58753;49.440;11.126;2022-10-23T03:22:47;7.78;92.80
71096;DHT22;58753;49.440;11.126;2022-10-23T03:25:13;7.72;93.23
71096;DHT22;58753;49.440;11.126;2022-10-23T03:27:38;7.75;93.31
71096;DHT22;58753;49.440;11.126;2022-10-23T03:30:04;7.77;93.25
71096;DHT22;58753;49.440;11.126;2022-10-23T03:32:30;7.75;93.13
71096;DHT22;58753;49.440;11.126;2022-10-23T03:34:55;7.75;92.99
71096;DHT22;58753;49.440;11.126;2022-10-23T03:37:21;7.74;92.92
71096;DHT22;58753;49.440;11.126;2022-10-23T03:39:46;7.65;92.62
71096;DHT22;58753;49.440;11.126;2022-10-23T03:42:11;7.57;92.75
71096;DHT22;58753;49.440;11.126;2022-10-23T03:44:37;7.60;92.77
71096;DHT22;58753;49.440;11.126;2022-10-23T03:47:02;7.57;93.09
71096;DHT22;58753;49.440;11.126;2022-10-23T03:49:28;7.58;93.05
71096;DHT22;58753;49.440;11.126;2022-10-23T03:51:53;7.58;92.91
71096;DHT22;58753;49.440;11.126;2022-10-23T03:54:24;7.51;92.54
71096;DHT22;58753;49.440;11.126;2022-10-23T03:56:50;7.41;92.65
71096;DHT22;58753;49.440;11.126;2022-10-23T03:59:16;7.35;92.73
71096;DHT22;58753;49.440;11.126;2022-10-23T04:01:41;7.34;92.87
71096;DHT22;58753;49.440;11.126;2022-10-23T04:04:07;7.37;92.83
71096;DHT22;58753;49.440;11.126;2022-10-23T04:06:32;7.32;93.08
71096;DHT22;58753;49.440;11.126;2022-10-23T04:08:57;7.32;93.19
71096;DHT22;58753;49.440;11.126;2022-10-23T04:11:23;7.40;92.99
71096;DHT22;58753;49.440;11.126;2022-10-23T04:13:48;7.37;92.86
71096;DHT22;58753;49.440;11.126;2022-10-23T04:16:14;7.40;92.85
71096;DHT22;58753;49.440;11.126;2022-10-23T04:18:40;7.38;92.85
71096;DHT22;58753;49.440;11.126;2022-10-23T04:21:05;7.37;92.85
71096;DHT22;58753;49.440;11.126;2022-10-23T04:23:31;7.31;92.66
71096;DHT22;58753;49.440;11.126;2022-10-23T04:25:56;7.37;92.98
71096;DHT22;58753;49.440;11.126;2022-10-23T04:28:22;7.35;92.69
71096;DHT22;58753;49.440;11.126;2022-10-23T04:30:48;7.35;92.58
71096;DHT22;58753;49.440;11.126;2022-10-23T04:33:13;7.32;92.64
71096;DHT22;58753;49.440;11.126;2022-10-23T04:35:38;7.17;92.82
71096;DHT22;58753;49.440;11.126;2022-10-23T04:38:04;7.17;92.61
71096;DHT22;58753;49.440;11.126;2022-10-23T04:40:29;7.16;92.50
71096;DHT22;58753;49.440;11.126;2022-10-23T04:42:55;7.16;92.98
71096;DHT22;58753;49.440;11.126;2022-10-23T04:45:20;7.18;92.91
71096;DHT22;58753;49.440;11.126;2022-10-23T04:47:45;7.16;93.20
71096;DHT22;58753;49.440;11.126;2022-10-23T04:50:11;7.14;93.13
71096;DHT22;58753;49.440;11.126;2022-10-23T04:52:36;7.17;93.25
71096;DHT22;58753;49.440;11.126;2022-10-23T04:55:02;7.20;93.31
71096;DHT22;58753;49.440;11.126;2022-10-23T04:57:28;7.20;93.39
71096;DHT22;58753;49.440;11.126;2022-10-23T04:59:53;7.21;93.32
71096;DHT22;58753;49.440;11.126;2022-10-23T05:02:18;7.20;93.29
71096;DHT22;58753;49.440;11.126;2022-10-23T05:04:44;7.18;93.12
71096;DHT22;58753;49.440;11.126;2022-10-23T05:07:09;7.08;92.60
71096;DHT22;58753;49.440;11.126;2022-10-23T05:09:34;7.06;92.75
71096;DHT22;58753;49.440;11.126;2022-10-23T05:12:00;7.06;92.81
71096;DHT22;58753;49.440;11.126;2022-10-23T05:14:25;7.00;92.98
71096;DHT22;58753;49.440;11.126;2022-10-23T05:16:54;6.97;93.03
71096;DHT22;58753;49.440;11.126;2022-10-23T05:19:29;7.03;93.09
71096;DHT22;58753;49.440;11.126;2022-10-23T05:21:57;6.97;93.03
71096;DHT22;58753;49.440;11.126;2022-10-23T05:24:24;6.97;92.86
71096;DHT22;58753;49.440;11.126;2022-10-23T05:26:51;6.95;92.82
71096;DHT22;58753;49.440;11.126;2022-10-23T05:29:20;6.93;93.10
71096;DHT22;58753;49.440;11.126;2022-10-23T05:31:47;6.95;93.33
71096;DHT22;58753;49.440;11.126;2022-10-23T05:34:16;6.92;93.29
71096;DHT22;58753;49.440;11.126;2022-10-23T05:36:43;6.90;93.14
71096;DHT22;58753;49.440;11.126;2022-10-23T05:39:09;6.89;93.27
71096;DHT22;58753;49.440;11.126;2022-10-23T05:41:34;6.89;92.95
71096;DHT22;58753;49.440;11.126;2022-10-23T05:44:00;6.86;93.06
71096;DHT22;58753;49.440;11.126;2022-10-23T05:46:25;6.89;93.20
71096;DHT22;58753;49.440;11.126;2022-10-23T05:48:52;6.85;93.11
71096;DHT22;58753;49.440;11.126;2022-10-23T05:51:18;6.86;93.21
71096;DHT22;58753;49.440;11.126;2022-10-23T05:53:50;6.87;93.30
71096;DHT22;58753;49.440;11.126;2022-10-23T05:56:16;6.86;93.05
71096;DHT22;58753;49.440;11.126;2022-10-23T05:58:42;6.87;93.26
71096;DHT22;58753;49.440;11.126;2022-10-23T06:01:09;6.82;93.09
71096;DHT22;58753;49.440;11.126;2022-10-23T06:03:35;6.89;92.88
71096;DHT22;58753;49.440;11.126;2022-10-23T06:06:01;6.87;93.03
71096;DHT22;58753;49.440;11.126;2022-10-23T06:08:27;6.93;93.21
71096;DHT22;58753;49.440;11.126;2022-10-23T06:10:53;6.90;93.41
71096;DHT22;58753;49.440;11.126;2022-10-23T06:13:18;6.80;93.38
71096;DHT22;58753;49.440;11.126;2022-10-23T06:15:44;6.77;93.49
71096;DHT22;58753;49.440;11.126;2022-10-23T06:18:09;6.92;93.55
71096;DHT22;58753;49.440;11.126;2022-10-23T06:20:36;6.93;93.77
71096;DHT22;58753;49.440;11.126;2022-10-23T06:23:02;7.03;93.68
71096;DHT22;58753;49.440;11.126;2022-10-23T06:25:28;7.03;93.58
71096;DHT22;58753;49.440;11.126;2022-10-23T06:27:53;7.11;93.42
71096;DHT22;58753;49.440;11.126;2022-10-23T06:30:19;7.14;93.40
71096;DHT22;58753;49.440;11.126;2022-10-23T06:32:44;7.17;93.41
71096;DHT22;58753;49.440;11.126;2022-10-23T06:35:09;7.20;93.65
71096;DHT22;58753;49.440;11.126;2022-10-23T06:37:35;7.24;93.91
71096;DHT22;58753;49.440;11.126;2022-10-23T06:40:00;7.30;93.77
71096;DHT22;58753;49.440;11.126;2022-10-23T06:42:25;7.31;93.89
71096;DHT22;58753;49.440;11.126;2022-10-23T06:44:51;7.41;93.90
71096;DHT22;58753;49.440;11.126;2022-10-23T06:47:16;7.55;94.15
71096;DHT22;58753;49.440;11.126;2022-10-23T06:49:42;7.64;94.37
71096;DHT22;58753;49.440;11.126;2022-10-23T06:52:07;7.78;94.37
71096;DHT22;58753;49.440;11.126;2022-10-23T06:54:33;7.86;94.52
71096;DHT22;58753;49.440;11.126;2022-10-23T06:56:58;7.95;94.46
71096;DHT22;58753;49.440;11.126;2022-10-23T06:59:23;7.95;94.03
71096;DHT22;58753;49.440;11.126;2022-10-23T07:01:49;8.03;94.29
71096;DHT22;58753;49.440;11.126;2022-10-23T07:04:14;8.16;94.76
71096;DHT22;58753;49.440;11.126;2022-10-23T07:06:40;8.28;94.70
71096;DHT22;58753;49.440;11.126;2022-10-23T07:09:06;8.34;94.58
71096;DHT22;58753;49.440;11.126;2022-10-23T07:11:32;8.40;94.57
71096;DHT22;58753;49.440;11.126;2022-10-23T07:13:57;8.43;94.36
71096;DHT22;58753;49.440;11.126;2022-10-23T07:16:23;8.49;94.51
71096;DHT22;58753;49.440;11.126;2022-10-23T07:18:52;8.57;94.85
71096;DHT22;58753;49.440;11.126;2022-10-23T07:21:18;8.61;94.65
71096;DHT22;58753;49.440;11.126;2022-10-23T07:23:43;8.67;95.28
71096;DHT22;58753;49.440;11.126;2022-10-23T07:26:13;8.77;94.90
71096;DHT22;58753;49.440;11.126;2022-10-23T07:28:41;8.85;94.98
71096;DHT22;58753;49.440;11.126;2022-10-23T07:31:07;8.96;95.17
71096;DHT22;58753;49.440;11.126;2022-10-23T07:33:32;9.05;95.09
71096;DHT22;58753;49.440;11.126;2022-10-23T07:35:58;9.12;95.09
71096;DHT22;58753;49.440;11.126;2022-10-23T07:38:23;9.24;95.35
71096;DHT22;58753;49.440;11.126;2022-10-23T07:40:49;9.35;95.43
71096;DHT22;58753;49.440;11.126;2022-10-23T07:43:15;9.46;95.21
71096;DHT22;58753;49.440;11.126;2022-10-23T07:45:45;9.63;95.54
71096;DHT22;58753;49.440;11.126;2022-10-23T07:48:10;9.69;95.18
71096;DHT22;58753;49.440;11.126;2022-10-23T07:50:37;9.78;95.11
71096;DHT22;58753;49.440;11.126;2022-10-23T07:53:03;10.04;95.32
71096;DHT22;58753;49.440;11.126;2022-10-23T07:55:28;10.09;95.11
71096;DHT22;58753;49.440;11.126;2022-10-23T07:57:53;10.23;95.40
71096;DHT22;58753;49.440;11.126;2022-10-23T08:00:19;10.44;94.78
71096;DHT22;58753;49.440;11.126;2022-10-23T08:02:44;10.54;94.36
71096;DHT22;58753;49.440;11.126;2022-10-23T08:05:09;10.67;95.02
71096;DHT22;58753;49.440;11.126;2022-10-23T08:07:35;10.78;94.70
71096;DHT22;58753;49.440;11.126;2022-10-23T08:10:00;10.91;94.94
71096;DHT22;58753;49.440;11.126;2022-10-23T08:12:26;11.12;94.42
71096;DHT22;58753;49.440;11.126;2022-10-23T08:14:51;11.22;94.46
71096;DHT22;58753;49.440;11.126;2022-10-23T08:17:16;11.39;94.12
71096;DHT22;58753;49.440;11.126;2022-10-23T08:19:42;11.55;92.96
71096;DHT22;58753;49.440;11.126;2022-10-23T08:22:11;11.69;93.04
71096;DHT22;58753;49.440;11.126;2022-10-23T08:24:36;11.69;92.89
71096;DHT22;58753;49.440;11.126;2022-10-23T08:27:02;11.81;92.86
71096;DHT22;58753;49.440;11.126;2022-10-23T08:29:27;11.89;93.24
71096;DHT22;58753;49.440;11.126;2022-10-23T08:31:53;11.91;93.33
71096;DHT22;58753;49.440;11.126;2022-10-23T08:34:20;11.97;93.35
71096;DHT22;58753;49.440;11.126;2022-10-23T08:36:46;12.10;92.54
71096;DHT22;58753;49.440;11.126;2022-10-23T08:39:11;12.21;92.94
71096;DHT22;58753;49.440;11.126;2022-10-23T08:41:48;12.28;92.92
71096;DHT22;58753;49.440;11.126;2022-10-23T08:46:54;12.44;92.59
71096;DHT22;58753;49.440;11.126;2022-10-23T08:53:04;12.69;92.61
71096;DHT22;58753;49.440;11.126;2022-10-23T08:57:54;12.95;91.79
71096;DHT22;58753;49.440;11.126;2022-10-23T09:00:22;13.17;90.36
71096;DHT22;58753;49.440;11.126;2022-10-23T09:02:52;13.22;90.65
71096;DHT22;58753;49.440;11.126;2022-10-23T09:05:31;13.39;89.31
71096;DHT22;58753;49.440;11.126;2022-10-23T09:08:10;13.50;88.96
71096;DHT22;58753;49.440;11.126;2022-10-23T09:10:57;13.61;88.03
71096;DHT22;58753;49.440;11.126;2022-10-23T09:13:37;13.89;84.62
71096;DHT22;58753;49.440;11.126;2022-10-23T09:16:26;14.12;83.69
71096;DHT22;58753;49.440;11.126;2022-10-23T09:18:58;14.38;82.32
71096;DHT22;58753;49.440;11.126;2022-10-23T09:21:28;14.52;79.91
71096;DHT22;58753;49.440;11.126;2022-10-23T09:23:54;14.58;79.84
71096;DHT22;58753;49.440;11.126;2022-10-23T09:26:19;14.83;77.55
71096;DHT22;58753;49.440;11.126;2022-10-23T09:28:50;14.94;76.30
71096;DHT22;58753;49.440;11.126;2022-10-23T09:31:17;15.02;74.48
71096;DHT22;58753;49.440;11.126;2022-10-23T09:34:00;15.10;74.48
71096;DHT22;58753;49.440;11.126;2022-10-23T09:36:26;15.11;74.49
71096;DHT22;58753;49.440;11.126;2022-10-23T09:38:56;15.20;73.93
71096;DHT22;58753;49.440;11.126;2022-10-23T09:49:04;15.34;73.55
71096;DHT22;58753;49.440;11.126;2022-10-23T09:51:31;15.45;73.13
71096;DHT22;58753;49.440;11.126;2022-10-23T09:53:58;15.37;74.72
71096;DHT22;58753;49.440;11.126;2022-10-23T09:56:30;15.30;74.37
71096;DHT22;58753;49.440;11.126;2022-10-23T09:59:03;15.53;71.56
71096;DHT22;58753;49.440;11.126;2022-10-23T10:01:32;15.62;70.81
71096;DHT22;58753;49.440;11.126;2022-10-23T10:04:00;15.77;69.89
71096;DHT22;58753;49.440;11.126;2022-10-23T10:06:29;15.81;69.74
71096;DHT22;58753;49.440;11.126;2022-10-23T10:09:04;15.94;69.49
71096;DHT22;58753;49.440;11.126;2022-10-23T10:11:51;15.95;69.16
71096;DHT22;58753;49.440;11.126;2022-10-23T10:14:40;16.04;68.72
71096;DHT22;58753;49.440;11.126;2022-10-23T10:20:05;16.08;68.71
71096;DHT22;58753;49.440;11.126;2022-10-23T10:25:25;16.10;68.61
71096;DHT22;58753;49.440;11.126;2022-10-23T10:39:46;16.53;66.70
71096;DHT22;58753;49.440;11.126;2022-10-23T10:42:40;16.64;66.15
71096;DHT22;58753;49.440;11.126;2022-10-23T10:50:51;16.90;65.23
71096;DHT22;58753;49.440;11.126;2022-10-23T10:53:42;16.95;64.87
71096;DHT22;58753;49.440;11.126;2022-10-23T10:56:14;17.22;64.19
71096;DHT22;58753;49.440;11.126;2022-10-23T10:58:49;17.41;63.26
71096;DHT22;58753;49.440;11.126;2022-10-23T11:01:27;17.58;64.74
71096;DHT22;58753;49.440;11.126;2022-10-23T11:06:58;18.03;60.44
71096;DHT22;58753;49.440;11.126;2022-10-23T11:09:27;18.17;59.79
71096;DHT22;58753;49.440;11.126;2022-10-23T11:11:53;18.29;59.48
71096;DHT22;58753;49.440;11.126;2022-10-23T11:14:27;18.38;59.35
71096;DHT22;58753;49.440;11.126;2022-10-23T11:17:26;18.58;59.72
71096;DHT22;58753;49.440;11.126;2022-10-23T11:20:26;18.58;58.96
71096;DHT22;58753;49.440;11.126;2022-10-23T11:25:52;18.83;58.42
71096;DHT22;58753;49.440;11.126;2022-10-23T11:28:33;18.90;58.58
71096;DHT22;58753;49.440;11.126;2022-10-23T11:31:08;19.01;58.68
71096;DHT22;58753;49.440;11.126;2022-10-23T11:34:07;19.36;59.56
71096;DHT22;58753;49.440;11.126;2022-10-23T11:36:53;19.43;58.71
71096;DHT22;58753;49.440;11.126;2022-10-23T11:39:23;19.31;57.84
71096;DHT22;58753;49.440;11.126;2022-10-23T11:42:13;19.23;58.92
71096;DHT22;58753;49.440;11.126;2022-10-23T11:44:40;19.04;59.02
71096;DHT22;58753;49.440;11.126;2022-10-23T11:55:28;19.02;60.19
71096;DHT22;58753;49.440;11.126;2022-10-23T12:00:30;19.02;60.37
71096;DHT22;58753;49.440;11.126;2022-10-23T12:02:56;19.21;59.85
71096;DHT22;58753;49.440;11.126;2022-10-23T12:05:36;19.01;60.67
71096;DHT22;58753;49.440;11.126;2022-10-23T12:08:07;19.00;58.64
71096;DHT22;58753;49.440;11.126;2022-10-23T12:10:45;18.90;61.67
71096;DHT22;58753;49.440;11.126;2022-10-23T12:16:06;18.98;58.73
71096;DHT22;58753;49.440;11.126;2022-10-23T12:18:32;19.32;58.57
71096;DHT22;58753;49.440;11.126;2022-10-23T12:21:15;19.45;59.55
71096;DHT22;58753;49.440;11.126;2022-10-23T12:26:41;20.14;57.90
71096;DHT22;58753;49.440;11.126;2022-10-23T12:29:22;19.90;58.71
71096;DHT22;58753;49.440;11.126;2022-10-23T12:32:17;19.59;58.39
71096;DHT22;58753;49.440;11.126;2022-10-23T12:40:09;19.16;59.49
71096;DHT22;58753;49.440;11.126;2022-10-23T12:42:36;19.11;59.14
71096;DHT22;58753;49.440;11.126;2022-10-23T12:45:12;19.01;59.83
71096;DHT22;58753;49.440;11.126;2022-10-23T12:47:42;18.81;60.97
71096;DHT22;58753;49.440;11.126;2022-10-23T12:50:28;18.70;61.48
71096;DHT22;58753;49.440;11.126;2022-10-23T12:52:57;18.63;62.66
71096;DHT22;58753;49.440;11.126;2022-10-23T12:55:24;18.63;62.10
71096;DHT22;58753;49.440;11.126;2022-10-23T12:57:50;18.70;60.56
71096;DHT22;58753;49.440;11.126;2022-10-23T13:00:20;18.70;60.79
71096;DHT22;58753;49.440;11.126;2022-10-23T13:02:59;18.64;60.98
71096;DHT22;58753;49.440;11.126;2022-10-23T13:05:26;18.56;62.55
71096;DHT22;58753;49.440;11.126;2022-10-23T13:07:52;18.50;61.68
71096;DHT22;58753;49.440;11.126;2022-10-23T13:10:19;18.51;61.79
71096;DHT22;58753;49.440;11.126;2022-10-23T13:13:05;18.48;61.55
71096;DHT22;58753;49.440;11.126;2022-10-23T13:15:39;18.47;62.33
71096;DHT22;58753;49.440;11.126;2022-10-23T13:18:06;18.32;62.31
71096;DHT22;58753;49.440;11.126;2022-10-23T13:20:35;18.29;62.94
71096;DHT22;58753;49.440;11.126;2022-10-23T13:23:17;18.19;63.80
71096;DHT22;58753;49.440;11.126;2022-10-23T13:25:59;18.12;63.01
71096;DHT22;58753;49.440;11.126;2022-10-23T13:28:49;18.03;63.40
71096;DHT22;58753;49.440;11.126;2022-10-23T13:33:42;17.90;63.33
71096;DHT22;58753;49.440;11.126;2022-10-23T13:38:39;17.89;63.73
71096;DHT22;58753;49.440;11.126;2022-10-23T13:41:08;17.87;63.46
71096;DHT22;58753;49.440;11.126;2022-10-23T13:43:35;17.87;63.93
71096;DHT22;58753;49.440;11.126;2022-10-23T13:46:00;17.79;64.93
71096;DHT22;58753;49.440;11.126;2022-10-23T13:48:26;17.76;64.38
71096;DHT22;58753;49.440;11.126;2022-10-23T13:50:52;17.78;65.20
71096;DHT22;58753;49.440;11.126;2022-10-23T13:53:18;17.75;65.04
71096;DHT22;58753;49.440;11.126;2022-10-23T13:55:46;17.76;65.24
71096;DHT22;58753;49.440;11.126;2022-10-23T13:58:11;17.74;66.07
71096;DHT22;58753;49.440;11.126;2022-10-23T14:00:37;17.72;65.60
71096;DHT22;58753;49.440;11.126;2022-10-23T14:03:04;17.75;66.19
71096;DHT22;58753;49.440;11.126;2022-10-23T14:05:30;17.74;66.52
71096;DHT22;58753;49.440;11.126;2022-10-23T14:07:55;17.64;68.53
71096;DHT22;58753;49.440;11.126;2022-10-23T14:10:21;17.56;69.22
71096;DHT22;58753;49.440;11.126;2022-10-23T14:12:47;17.56;68.42
71096;DHT22;58753;49.440;11.126;2022-10-23T14:15:18;17.48;68.06
71096;DHT22;58753;49.440;11.126;2022-10-23T14:17:43;17.41;67.78
71096;DHT22;58753;49.440;11.126;2022-10-23T14:20:09;17.31;68.91
71096;DHT22;58753;49.440;11.126;2022-10-23T14:22:34;17.31;67.88
71096;DHT22;58753;49.440;11.126;2022-10-23T14:25:00;17.25;68.37
71096;DHT22;58753;49.440;11.126;2022-10-23T14:27:25;17.31;67.77
71096;DHT22;58753;49.440;11.126;2022-10-23T14:29:50;17.30;68.37
71096;DHT22;58753;49.440;11.126;2022-10-23T14:32:16;17.27;69.98
71096;DHT22;58753;49.440;11.126;2022-10-23T14:34:42;17.20;70.81
71096;DHT22;58753;49.440;11.126;2022-10-23T14:37:09;17.14;71.46
71096;DHT22;58753;49.440;11.126;2022-10-23T14:39:35;17.13;71.32
71096;DHT22;58753;49.440;11.126;2022-10-23T14:42:00;17.08;71.65
71096;DHT22;58753;49.440;11.126;2022-10-23T14:44:26;17.07;71.67
71096;DHT22;58753;49.440;11.126;2022-10-23T14:46:51;17.13;70.10
71096;DHT22;58753;49.440;11.126;2022-10-23T14:49:17;17.11;71.20
71096;DHT22;58753;49.440;11.126;2022-10-23T14:51:42;17.07;71.18
71096;DHT22;58753;49.440;11.126;2022-10-23T14:54:07;17.07;71.04
71096;DHT22;58753;49.440;11.126;2022-10-23T14:56:35;17.06;71.16
71096;DHT22;58753;49.440;11.126;2022-10-23T14:59:02;17.00;71.64
71096;DHT22;58753;49.440;11.126;2022-10-23T15:01:29;17.03;70.99
71096;DHT22;58753;49.440;11.126;2022-10-23T15:03:55;16.91;72.73
71096;DHT22;58753;49.440;11.126;2022-10-23T15:06:21;16.84;72.69
71096;DHT22;58753;49.440;11.126;2022-10-23T15:08:53;16.79;72.75
71096;DHT22;58753;49.440;11.126;2022-10-23T15:11:20;16.70;73.07
71096;DHT22;58753;49.440;11.126;2022-10-23T15:13:46;16.77;72.09
71096;DHT22;58753;49.440;11.126;2022-10-23T15:16:11;16.67;73.83
71096;DHT22;58753;49.440;11.126;2022-10-23T15:18:36;16.66;72.62
71096;DHT22;58753;49.440;11.126;2022-10-23T15:21:03;16.60;73.12
71096;DHT22;58753;49.440;11.126;2022-10-23T15:23:31;16.56;74.30
71096;DHT22;58753;49.440;11.126;2022-10-23T15:26:00;16.50;74.51
71096;DHT22;58753;49.440;11.126;2022-10-23T15:28:27;16.40;74.71
71096;DHT22;58753;49.440;11.126;2022-10-23T15:30:53;16.32;74.55
71096;DHT22;58753;49.440;11.126;2022-10-23T15:33:19;16.32;74.67
71096;DHT22;58753;49.440;11.126;2022-10-23T15:35:44;16.20;75.85
71096;DHT22;58753;49.440;11.126;2022-10-23T15:38:10;16.18;75.45
71096;DHT22;58753;49.440;11.126;2022-10-23T15:40:35;16.04;76.73
71096;DHT22;58753;49.440;11.126;2022-10-23T15:43:01;16.02;76.57
71096;DHT22;58753;49.440;11.126;2022-10-23T15:45:26;16.05;76.00
71096;DHT22;58753;49.440;11.126;2022-10-23T15:47:52;15.98;76.61
71096;DHT22;58753;49.440;11.126;2022-10-23T15:50:17;15.95;76.86
71096;DHT22;58753;49.440;11.126;2022-10-23T15:52:43;15.91;76.70
71096;DHT22;58753;49.440;11.126;2022-10-23T15:55:08;15.81;77.75
71096;DHT22;58753;49.440;11.126;2022-10-23T15:57:37;15.67;78.91
71096;DHT22;58753;49.440;11.126;2022-10-23T16:00:04;15.71;78.23
71096;DHT22;58753;49.440;11.126;2022-10-23T16:02:29;15.71;77.57
71096;DHT22;58753;49.440;11.126;2022-10-23T16:04:55;15.77;77.37
71096;DHT22;58753;49.440;11.126;2022-10-23T16:07:20;15.68;78.71
71096;DHT22;58753;49.440;11.126;2022-10-23T16:09:45;15.71;77.97
71096;DHT22;58753;49.440;11.126;2022-10-23T16:12:11;15.69;77.92
71096;DHT22;58753;49.440;11.126;2022-10-23T16:14:37;15.59;79.00
71096;DHT22;58753;49.440;11.126;2022-10-23T16:17:03;15.61;78.33
71096;DHT22;58753;49.440;11.126;2022-10-23T16:19:28;15.58;78.55
71096;DHT22;58753;49.440;11.126;2022-10-23T16:21:54;15.61;78.28
71096;DHT22;58753;49.440;11.126;2022-10-23T16:24:19;15.57;78.54
71096;DHT22;58753;49.440;11.126;2022-10-23T16:26:44;15.55;78.57
71096;DHT22;58753;49.440;11.126;2022-10-23T16:29:14;15.48;79.21
71096;DHT22;58753;49.440;11.126;2022-10-23T16:31:39;15.50;78.83
71096;DHT22;58753;49.440;11.126;2022-10-23T16:34:05;15.43;79.27
71096;DHT22;58753;49.440;11.126;2022-10-23T16:36:31;15.38;79.39
71096;DHT22;58753;49.440;11.126;2022-10-23T16:38:57;15.26;80.36
71096;DHT22;58753;49.440;11.126;2022-10-23T16:41:22;15.24;80.63
71096;DHT22;58753;49.440;11.126;2022-10-23T16:43:48;15.19;80.65
71096;DHT22;58753;49.440;11.126;2022-10-23T16:46:16;15.08;81.28
71096;DHT22;58753;49.440;11.126;2022-10-23T16:48:42;15.11;80.75
71096;DHT22;58753;49.440;11.126;2022-10-23T16:51:13;15.13;80.58
71096;DHT22;58753;49.440;11.126;2022-10-23T16:53:39;15.17;80.38
71096;DHT22;58753;49.440;11.126;2022-10-23T16:56:07;15.17;80.67
71096;DHT22;58753;49.440;11.126;2022-10-23T16:58:33;15.10;80.81
71096;DHT22;58753;49.440;11.126;2022-10-23T17:01:05;15.07;81.04
71096;DHT22;58753;49.440;11.126;2022-10-23T17:03:36;15.06;80.89
71096;DHT22;58753;49.440;11.126;2022-10-23T17:06:07;14.97;81.95
71096;DHT22;58753;49.440;11.126;2022-10-23T17:08:32;14.93;81.61
71096;DHT22;58753;49.440;11.126;2022-10-23T17:11:10;14.96;81.38
71096;DHT22;58753;49.440;11.126;2022-10-23T17:13:38;14.89;82.01
71096;DHT22;58753;49.440;11.126;2022-10-23T17:16:13;14.89;81.90
71096;DHT22;58753;49.440;11.126;2022-10-23T17:18:40;14.84;82.16
71096;DHT22;58753;49.440;11.126;2022-10-23T17:21:06;14.80;82.53